Terminal Aerodrome Forecast
Issued by NWS Duluth, MN

Home | Current Version | Previous Version | Text Only | Print | Product List | Glossary On
Versions: 1 2 3 4 5 6 7 8 9 10 11 12 13 14 15 16 17 18 19 20 21 22 23 24 25 26 27 28 29 30 31 32 33 34 35 36 37
673
FTUS43 KDLH 231258 AAB
TAFDLH
TAF AMD
KDLH 231258Z 2313/2412 35011KT P6SM SCT020
      TEMPO 2313/2315 BKN020
     FM231700 35008KT P6SM SCT020
     FM240000 VRB03KT P6SM SCT070
     FM241100 VRB03KT P6SM BKN015=

USA.gov is the U.S. government's official web portal to all federal, state and local government web resources and services.